Time;durP1;ratioP1;P1;durP2;ratioP2;P2;SDS_P1;SDS_P2;PMS_P1;PMS_P2;Temp;Humidity;BMP_temperature;BMP_pressure;BME280_temperature;BME280_humidity;BME280_pressure;Samples;Min_cycle;Max_cycle;Signal;HPM_P1;HPM_P2
2021/01/23 00:00:24;;;;;;;0.20;0.20;;;5.60;87.60;;;;;;6190701;22;20015;-91
2021/01/23 00:02:50;;;;;;;3.07;0.30;;;5.60;87.70;;;;;;6191901;23;20035;-92
2021/01/23 00:05:17;;;;;;;0.07;0.00;;;5.60;87.70;;;;;;6165531;23;20007;-91
2021/01/23 00:07:43;;;;;;;0.00;0.00;;;5.50;87.70;;;;;;6192295;23;20000;-91
2021/01/23 00:10:10;;;;;;;4.90;0.47;;;5.60;87.70;;;;;;6216990;23;19992;-90
2021/01/23 00:12:36;;;;;;;0.47;0.30;;;5.60;87.80;;;;;;6191357;23;20001;-92
2021/01/23 00:15:04;;;;;;;0.00;0.00;;;5.60;87.70;;;;;;6217082;22;20003;-91
2021/01/23 00:17:31;;;;;;;2.73;0.10;;;5.60;87.70;;;;;;6216389;23;20005;-91
2021/01/23 00:19:57;;;;;;;0.07;0.07;;;5.50;87.70;;;;;;6216167;23;20000;-91
2021/01/23 00:22:23;;;;;;;1.07;0.17;;;5.50;87.70;;;;;;6216235;23;20004;-92
2021/01/23 00:24:50;;;;;;;1.10;0.30;;;5.50;87.70;;;;;;6217449;23;20003;-91
2021/01/23 00:27:16;;;;;;;0.00;0.00;;;5.50;87.70;;;;;;6215718;23;20004;-92
2021/01/23 00:29:42;;;;;;;0.00;0.00;;;5.60;87.70;;;;;;6215565;23;20000;-91
2021/01/23 00:32:09;;;;;;;0.40;0.40;;;5.60;87.80;;;;;;6217533;22;20009;-92
2021/01/23 00:34:35;;;;;;;0.33;0.23;;;5.50;87.70;;;;;;6192596;23;19992;-91
2021/01/23 00:37:01;;;;;;;0.67;0.37;;;5.50;87.70;;;;;;6215231;23;20005;-92
2021/01/23 00:39:28;;;;;;;0.57;0.10;;;5.50;87.70;;;;;;6165299;23;20395;-90
2021/01/23 00:41:54;;;;;;;0.00;0.00;;;5.60;87.80;;;;;;6165663;23;20005;-91
2021/01/23 00:44:20;;;;;;;0.00;0.00;;;5.60;87.70;;;;;;6216863;23;19997;-91
2021/01/23 00:46:47;;;;;;;0.00;0.00;;;5.60;87.60;;;;;;6214991;23;20016;-91
2021/01/23 00:49:15;;;;;;;0.20;0.10;;;5.60;87.60;;;;;;6215950;23;20438;-92
2021/01/23 00:51:42;;;;;;;1.10;0.00;;;5.60;88.30;;;;;;6216754;23;20000;-92
2021/01/23 00:54:08;;;;;;;5.40;0.37;;;5.60;87.50;;;;;;6216938;23;19996;-92
2021/01/23 00:56:34;;;;;;;0.17;0.00;;;5.60;87.50;;;;;;6220939;23;20004;-92
2021/01/23 00:59:01;;;;;;;0.00;0.00;;;5.60;87.40;;;;;;6197784;23;20004;-91
2021/01/23 01:01:27;;;;;;;0.00;0.00;;;5.60;87.40;;;;;;6221748;22;20023;-92
2021/01/23 01:03:53;;;;;;;0.00;0.00;;;5.60;87.30;;;;;;6194860;23;20011;-91
2021/01/23 01:06:20;;;;;;;0.13;0.13;;;5.60;87.30;;;;;;6248082;23;20000;-91
2021/01/23 01:08:46;;;;;;;0.93;0.13;;;5.60;87.30;;;;;;6195464;23;20008;-92
2021/01/23 01:11:12;;;;;;;0.00;0.00;;;5.60;87.30;;;;;;6219305;23;20000;-92
2021/01/23 01:13:39;;;;;;;0.00;0.00;;;5.60;87.30;;;;;;6195156;23;20000;-92
2021/01/23 01:16:05;;;;;;;0.40;0.07;;;5.70;87.20;;;;;;6219360;22;20027;-91
2021/01/23 01:18:32;;;;;;;0.50;0.30;;;5.70;87.10;;;;;;6222053;23;20000;-93
2021/01/23 01:20:58;;;;;;;0.20;0.10;;;5.70;87.00;;;;;;6221466;23;20003;-92
2021/01/23 01:23:24;;;;;;;0.10;0.00;;;5.80;87.00;;;;;;6194997;23;20117;-91
2021/01/23 01:25:51;;;;;;;0.37;0.00;;;5.80;86.90;;;;;;6220850;23;19997;-92
2021/01/23 01:28:17;;;;;;;0.07;0.00;;;5.70;86.80;;;;;;6246989;23;20007;-92
2021/01/23 01:30:43;;;;;;;0.00;0.00;;;5.80;86.90;;;;;;6221773;22;20400;-90
2021/01/23 01:33:10;;;;;;;0.00;0.00;;;5.80;86.80;;;;;;6219934;23;20007;-92
2021/01/23 01:35:38;;;;;;;0.00;0.00;;;5.80;86.70;;;;;;6247923;23;20287;-92
2021/01/23 01:38:04;;;;;;;0.00;0.00;;;5.80;86.60;;;;;;6196433;23;20007;-90
2021/01/23 01:40:30;;;;;;;0.00;0.00;;;5.90;86.60;;;;;;6244124;23;20233;-89
2021/01/23 01:42:57;;;;;;;0.00;0.00;;;5.90;86.40;;;;;;6195849;23;20003;-91
2021/01/23 01:45:24;;;;;;;0.40;0.30;;;5.90;86.30;;;;;;6194514;23;20027;-90
2021/01/23 01:47:50;;;;;;;0.00;0.00;;;6.00;86.30;;;;;;6197035;23;20000;-91
2021/01/23 01:50:16;;;;;;;0.00;0.00;;;6.00;86.20;;;;;;6219378;23;20383;-91
2021/01/23 01:52:43;;;;;;;0.00;0.00;;;6.10;86.10;;;;;;6196508;23;20007;-92
2021/01/23 01:55:12;;;;;;;0.00;0.00;;;6.10;86.10;;;;;;6195651;23;20211;-91
2021/01/23 01:57:39;;;;;;;0.00;0.00;;;6.10;86.10;;;;;;6169173;23;20004;-88
2021/01/23 02:00:06;;;;;;;0.00;0.00;;;6.10;86.10;;;;;;6168987;23;20000;-92
2021/01/23 02:02:51;;;;;;;0.77;0.23;;;6.10;86.10;;;;;;6195288;23;20004;-90
2021/01/23 02:05:19;;;;;;;0.00;0.00;;;6.10;86.20;;;;;;6244826;23;20011;-91
2021/01/23 02:07:45;;;;;;;0.00;0.00;;;6.10;86.10;;;;;;6221478;23;20000;-92
2021/01/23 02:10:20;;;;;;;0.00;0.00;;;6.10;86.20;;;;;;6219371;23;20000;-91
2021/01/23 02:13:23;;;;;;;0.43;0.10;;;6.00;86.20;;;;;;6221112;23;19993;-91
2021/01/23 02:16:25;;;;;;;0.00;0.00;;;6.00;86.20;;;;;;6193421;23;20151;-90
2021/01/23 02:19:06;;;;;;;0.00;0.00;;;6.00;86.30;;;;;;6223781;23;20000;-89
2021/01/23 02:22:08;;;;;;;0.00;0.00;;;6.00;86.20;;;;;;6221640;23;20004;-92
2021/01/23 02:24:34;;;;;;;0.00;0.00;;;6.00;86.30;;;;;;6147237;23;20004;-91
2021/01/23 02:27:16;;;;;;;0.00;0.00;;;6.00;86.30;;;;;;6195620;23;20011;-90
2021/01/23 02:30:37;;;;;;;3.40;0.10;;;6.00;86.40;;;;;;6250629;23;20004;-90
2021/01/23 02:33:03;;;;;;;0.00;0.00;;;5.90;86.30;;;;;;6175150;23;20024;-90
2021/01/23 02:35:30;;;;;;;0.00;0.00;;;5.90;86.30;;;;;;6200769;23;20059;-90
2021/01/23 02:37:56;;;;;;;0.00;0.00;;;6.00;86.30;;;;;;6219958;23;20005;-91
2021/01/23 02:40:22;;;;;;;0.10;0.10;;;6.00;86.30;;;;;;6194418;22;20238;-90
2021/01/23 02:42:49;;;;;;;0.00;0.00;;;6.00;86.30;;;;;;6220223;22;20052;-90
2021/01/23 02:45:16;;;;;;;0.00;0.00;;;6.00;86.10;;;;;;6195105;22;20044;-91
2021/01/23 02:47:42;;;;;;;0.00;0.00;;;6.00;86.10;;;;;;6221265;22;20008;-89
2021/01/23 02:50:09;;;;;;;0.00;0.00;;;6.10;86.00;;;;;;6219808;22;20064;-90
2021/01/23 02:53:00;;;;;;;0.43;0.10;;;6.10;86.10;;;;;;6220240;22;20044;-90
2021/01/23 02:55:30;;;;;;;0.00;0.00;;;6.10;86.10;;;;;;6228092;23;20068;-89
2021/01/23 02:57:56;;;;;;;0.77;0.20;;;6.00;86.10;;;;;;6193550;23;20000;-91
2021/01/23 03:00:25;;;;;;;0.00;0.00;;;6.00;86.10;;;;;;6171251;22;25211;-90
2021/01/23 03:03:15;;;;;;;0.00;0.00;;;6.00;86.20;;;;;;6169133;23;19996;-92
2021/01/23 03:05:41;;;;;;;0.10;0.00;;;6.00;86.30;;;;;;6190095;23;20016;-92
2021/01/23 03:08:07;;;;;;;0.00;0.00;;;6.00;86.30;;;;;;6214320;23;20016;-91
2021/01/23 03:10:35;;;;;;;0.00;0.00;;;6.00;87.00;;;;;;6163968;23;20001;-92
2021/01/23 03:13:02;;;;;;;1.87;0.20;;;6.00;86.30;;;;;;6216183;23;20001;-88
2021/01/23 03:15:28;;;;;;;0.00;0.00;;;6.00;86.30;;;;;;6190166;23;20005;-90
2021/01/23 03:17:55;;;;;;;0.07;0.07;;;6.00;86.30;;;;;;6190803;23;20000;-90
2021/01/23 03:20:21;;;;;;;0.00;0.00;;;6.00;86.20;;;;;;6190599;23;19996;-92
2021/01/23 03:22:48;;;;;;;0.00;0.00;;;6.10;86.20;;;;;;6216137;23;20001;-92
2021/01/23 03:25:15;;;;;;;0.10;0.10;;;6.10;86.00;;;;;;6216463;23;19997;-92
2021/01/23 03:27:41;;;;;;;0.00;0.00;;;6.10;86.00;;;;;;6190039;23;20012;-93
2021/01/23 03:30:08;;;;;;;0.00;0.00;;;6.20;86.00;;;;;;6188696;22;20012;-92
2021/01/23 03:32:34;;;;;;;0.00;0.00;;;6.20;86.00;;;;;;6215017;23;20356;-92
2021/01/23 03:35:02;;;;;;;0.00;0.00;;;6.20;86.00;;;;;;6164716;23;20019;-92
2021/01/23 03:37:28;;;;;;;10.67;0.30;;;6.20;86.00;;;;;;6189091;23;20005;-92
2021/01/23 03:39:55;;;;;;;0.00;0.00;;;6.20;86.00;;;;;;6217574;23;20004;-93
2021/01/23 03:42:21;;;;;;;0.00;0.00;;;6.20;86.00;;;;;;6190732;23;20004;-91
2021/01/23 03:44:47;;;;;;;0.00;0.00;;;6.20;86.00;;;;;;6191540;23;20003;-91
2021/01/23 03:47:14;;;;;;;0.00;0.00;;;6.30;86.00;;;;;;6215322;22;20008;-92
2021/01/23 03:49:41;;;;;;;0.00;0.00;;;6.30;86.00;;;;;;6190807;23;20004;-91
2021/01/23 03:52:07;;;;;;;0.87;0.57;;;6.30;86.00;;;;;;6190809;23;20008;-91
2021/01/23 03:54:33;;;;;;;0.00;0.00;;;6.30;86.00;;;;;;6196530;23;20008;-91
2021/01/23 03:57:00;;;;;;;0.00;0.00;;;6.30;86.00;;;;;;6171556;23;20004;-92
2021/01/23 03:59:26;;;;;;;0.27;0.27;;;6.30;86.00;;;;;;6197139;23;20260;-92
2021/01/23 04:01:52;;;;;;;0.07;0.07;;;6.30;86.00;;;;;;6222024;23;20012;-93
2021/01/23 04:04:19;;;;;;;0.00;0.00;;;6.30;86.10;;;;;;6222505;23;20256;-93
2021/01/23 04:06:45;;;;;;;0.00;0.00;;;6.30;86.10;;;;;;6196727;23;19996;-92
2021/01/23 04:09:11;;;;;;;0.00;0.00;;;6.30;86.10;;;;;;6221243;23;20015;-92
2021/01/23 04:11:38;;;;;;;0.00;0.00;;;6.30;86.10;;;;;;6171161;23;20000;-91
2021/01/23 04:14:04;;;;;;;0.00;0.00;;;6.30;86.00;;;;;;6222743;23;20003;-91
2021/01/23 04:16:30;;;;;;;0.00;0.00;;;6.30;86.00;;;;;;6194849;23;20008;-93
2021/01/23 04:18:57;;;;;;;0.00;0.00;;;6.40;86.00;;;;;;6221286;23;20014;-92
2021/01/23 04:21:23;;;;;;;0.00;0.00;;;6.40;86.10;;;;;;6221555;23;20000;-90
2021/01/23 04:23:50;;;;;;;0.00;0.00;;;6.40;86.10;;;;;;6195421;23;20011;-92
2021/01/23 04:26:16;;;;;;;0.00;0.00;;;6.40;86.10;;;;;;6222944;23;20003;-92
2021/01/23 04:28:42;;;;;;;0.10;0.00;;;6.40;86.20;;;;;;6196181;23;20004;-91
2021/01/23 04:31:09;;;;;;;0.00;0.00;;;6.40;86.20;;;;;;6170783;23;20000;-92
2021/01/23 04:33:35;;;;;;;0.00;0.00;;;6.40;86.10;;;;;;6171087;23;20004;-92
2021/01/23 04:36:02;;;;;;;0.00;0.00;;;6.40;86.10;;;;;;6221876;23;20000;-91
2021/01/23 04:38:29;;;;;;;10.20;0.20;;;6.50;86.10;;;;;;6196516;23;20000;-92
2021/01/23 04:40:55;;;;;;;0.00;0.00;;;6.50;86.10;;;;;;6197888;23;20007;-94
2021/01/23 04:43:23;;;;;;;0.00;0.00;;;6.50;86.00;;;;;;6170601;23;20284;-89
2021/01/23 04:45:49;;;;;;;0.00;0.00;;;6.50;85.90;;;;;;6221341;23;20004;-90
2021/01/23 04:48:16;;;;;;;0.00;0.00;;;6.60;86.00;;;;;;6245732;23;20027;-92
2021/01/23 04:50:44;;;;;;;0.13;0.13;;;6.60;85.90;;;;;;6220857;23;19997;-93
2021/01/23 04:53:10;;;;;;;0.00;0.00;;;6.60;85.90;;;;;;6170963;23;20004;-93
2021/01/23 04:55:37;;;;;;;0.00;0.00;;;6.60;85.80;;;;;;6178018;23;20016;-95
2021/01/23 04:58:03;;;;;;;0.00;0.00;;;6.70;85.80;;;;;;6217916;23;20027;-91
2021/01/23 05:00:29;;;;;;;0.00;0.00;;;6.70;85.70;;;;;;6217618;23;20004;-92
2021/01/23 05:03:03;;;;;;;0.00;0.00;;;6.70;85.70;;;;;;6166698;23;19997;-93
2021/01/23 05:05:29;;;;;;;0.90;0.00;;;6.80;85.70;;;;;;6168219;23;20001;-92
2021/01/23 05:08:12;;;;;;;0.00;0.00;;;6.80;85.60;;;;;;6141071;23;20008;-93
2021/01/23 05:10:39;;;;;;;0.00;0.00;;;6.80;85.60;;;;;;6215203;23;20005;-92
2021/01/23 05:13:15;;;;;;;0.00;0.00;;;6.90;85.60;;;;;;6165544;23;19997;-92
2021/01/23 05:15:45;;;;;;;0.10;0.10;;;6.90;85.50;;;;;;6163840;23;20008;-92
2021/01/23 05:18:15;;;;;;;0.00;0.00;;;6.90;85.40;;;;;;6190771;23;20008;-92
2021/01/23 05:20:51;;;;;;;0.00;0.00;;;7.00;85.40;;;;;;6192875;23;19996;-93
2021/01/23 05:23:28;;;;;;;0.10;0.10;;;7.00;85.40;;;;;;6191309;23;20016;-93
2021/01/23 05:25:58;;;;;;;0.00;0.00;;;7.00;85.40;;;;;;6189947;23;20402;-94
2021/01/23 05:28:37;;;;;;;0.00;0.00;;;7.00;85.40;;;;;;6165401;23;20004;-91
2021/01/23 05:31:04;;;;;;;0.00;0.00;;;7.00;85.50;;;;;;6192432;23;20044;-92
2021/01/23 05:33:32;;;;;;;0.00;0.00;;;7.00;85.50;;;;;;6140301;23;19996;-91
2021/01/23 05:35:59;;;;;;;0.00;0.00;;;7.00;85.50;;;;;;6167039;23;20004;-93
2021/01/23 05:38:33;;;;;;;0.00;0.00;;;7.00;85.50;;;;;;6217379;23;20008;-93
2021/01/23 05:41:08;;;;;;;0.00;0.00;;;7.00;85.50;;;;;;6165915;23;20008;-94
2021/01/23 05:44:35;;;;;;;;;;;;;;;;;;;;;
2021/01/23 05:46:53;;;;;;;0.00;0.00;;;7.10;85.50;;;;;;6171597;23;20020;-93
2021/01/23 05:49:25;;;;;;;0.40;0.10;;;7.00;85.50;;;;;;6144848;23;20015;-93
2021/01/23 05:51:53;;;;;;;0.00;0.00;;;7.00;85.60;;;;;;6167644;23;19996;-93
2021/01/23 05:54:20;;;;;;;0.10;0.10;;;7.00;85.70;;;;;;6145537;23;20008;-93
2021/01/23 05:56:47;;;;;;;0.00;0.00;;;7.00;85.70;;;;;;6197023;23;20291;-93
2021/01/23 05:59:16;;;;;;;0.00;0.00;;;7.10;85.60;;;;;;6197155;23;20027;-94
2021/01/23 06:01:57;;;;;;;;;;;;;;;;;;;;;
2021/01/23 06:05:08;;;;;;;0.00;0.00;;;7.10;85.50;;;;;;6202540;23;20008;-93
2021/01/23 06:08:38;;;;;;;;;;;;;;;;;;;;;
2021/01/23 06:11:31;;;;;;;0.00;0.00;;;7.20;85.40;;;;;;6092745;23;20014;-94
2021/01/23 06:13:58;;;;;;;0.00;0.00;;;7.20;85.30;;;;;;6137094;23;20015;-93
2021/01/23 06:16:33;;;;;;;4.87;0.20;;;7.20;85.40;;;;;;6171597;23;20008;-92
2021/01/23 06:19:00;;;;;;;0.00;0.00;;;7.20;85.50;;;;;;6221041;23;20011;-92
2021/01/23 06:21:45;;;;;;;0.00;0.00;;;7.20;85.70;;;;;;6222774;23;20000;-92
2021/01/23 06:24:15;;;;;;;0.23;0.03;;;7.20;85.90;;;;;;6248491;23;20000;-91
2021/01/23 06:26:54;;;;;;;3.83;0.27;;;7.20;85.90;;;;;;6199955;23;20008;-91
2021/01/23 06:29:40;;;;;;;0.00;0.00;;;7.20;85.90;;;;;;6226138;23;20396;-89
2021/01/23 06:32:13;;;;;;;0.00;0.00;;;7.20;85.90;;;;;;6201122;23;20018;-89
2021/01/23 06:34:55;;;;;;;0.00;0.00;;;7.20;85.90;;;;;;6251232;23;19996;-89
2021/01/23 06:37:21;;;;;;;8.20;0.60;;;7.00;85.90;;;;;;6222271;23;20000;-88
2021/01/23 06:40:00;;;;;;;0.00;0.00;;;6.50;86.50;;;;;;6246276;23;20000;-89
2021/01/23 06:42:26;;;;;;;0.00;0.00;;;6.00;87.60;;;;;;6219492;23;19996;-88
2021/01/23 06:44:53;;;;;;;0.00;0.00;;;5.70;88.70;;;;;;6196242;23;20388;-89
2021/01/23 06:47:19;;;;;;;0.90;0.20;;;5.60;89.30;;;;;;6196127;23;20284;-88
2021/01/23 06:49:45;;;;;;;0.00;0.00;;;5.50;89.50;;;;;;6195678;23;20015;-88
2021/01/23 06:52:12;;;;;;;0.00;0.00;;;5.50;89.60;;;;;;6196107;23;20008;-88
2021/01/23 06:54:38;;;;;;;0.00;0.00;;;5.50;89.50;;;;;;6191040;23;20365;-88
2021/01/23 06:57:06;;;;;;;0.00;0.00;;;5.50;89.30;;;;;;6166270;23;20252;-89
2021/01/23 06:59:33;;;;;;;0.00;0.00;;;5.50;89.20;;;;;;6193569;23;20383;-90
2021/01/23 07:02:01;;;;;;;0.00;0.00;;;5.50;88.90;;;;;;6190820;23;20008;-90
2021/01/23 07:04:35;;;;;;;0.00;0.00;;;5.60;88.90;;;;;;6190989;23;20212;-89
2021/01/23 07:07:07;;;;;;;0.00;0.00;;;5.60;88.70;;;;;;6190904;23;20001;-90
2021/01/23 07:09:53;;;;;;;0.00;0.00;;;5.60;88.60;;;;;;6191306;23;20021;-90
2021/01/23 07:12:39;;;;;;;0.00;0.00;;;5.60;88.40;;;;;;6196957;23;20257;-92
2021/01/23 07:15:09;;;;;;;0.00;0.00;;;5.70;88.30;;;;;;6191254;22;20001;-92
2021/01/23 07:17:39;;;;;;;0.00;0.00;;;5.80;87.90;;;;;;6191139;23;20007;-95
2021/01/23 07:20:10;;;;;;;0.00;0.00;;;5.80;87.90;;;;;;6196912;23;20262;-93
2021/01/23 07:22:40;;;;;;;0.00;0.00;;;5.70;87.80;;;;;;6191824;23;20031;-92
2021/01/23 07:25:08;;;;;;;0.00;0.00;;;5.80;87.90;;;;;;6191640;23;20004;-92
2021/01/23 07:27:38;;;;;;;0.00;0.00;;;5.80;87.90;;;;;;6202733;23;20003;-94
2021/01/23 07:30:11;;;;;;;0.43;0.23;;;5.80;87.90;;;;;;6213156;22;20000;-94
2021/01/23 07:32:39;;;;;;;0.00;0.00;;;5.80;87.80;;;;;;6199267;23;19992;-95
2021/01/23 07:35:06;;;;;;;0.00;0.00;;;5.80;87.80;;;;;;6199701;23;19999;-94
2021/01/23 07:37:46;;;;;;;0.00;0.00;;;5.80;87.70;;;;;;6195887;23;20000;-96
2021/01/23 07:40:47;;;;;;;0.00;0.00;;;5.80;87.70;;;;;;6196045;23;20008;-95
2021/01/23 07:43:41;;;;;;;0.00;0.00;;;5.80;87.70;;;;;;6180624;23;20086;-94
2021/01/23 07:46:07;;;;;;;0.00;0.00;;;5.80;87.70;;;;;;6214358;22;20004;-91
2021/01/23 07:48:43;;;;;;;0.00;0.00;;;5.80;87.70;;;;;;6231008;23;20001;-95
2021/01/23 07:51:25;;;;;;;0.00;0.00;;;5.80;87.70;;;;;;6205516;23;20001;-94
2021/01/23 07:54:15;;;;;;;;;;;;;;;;;;;;;
2021/01/23 07:56:56;;;;;;;0.00;0.00;;;5.80;87.80;;;;;;6165093;23;20068;-94
2021/01/23 07:59:42;;;;;;;0.00;0.00;;;5.70;87.60;;;;;;6169870;23;20400;-95
2021/01/23 08:02:14;;;;;;;0.00;0.00;;;5.80;87.70;;;;;;6185149;23;20017;-93
2021/01/23 08:04:40;;;;;;;0.00;0.00;;;5.70;87.70;;;;;;6169201;23;20000;-94
2021/01/23 08:07:40;;;;;;;0.00;0.00;;;5.70;87.70;;;;;;6170641;23;20368;-94
2021/01/23 08:10:20;;;;;;;0.00;0.00;;;5.70;87.70;;;;;;6187608;23;20059;-93
2021/01/23 08:13:00;;;;;;;0.00;0.00;;;5.70;87.70;;;;;;6219580;23;20044;-93
2021/01/23 08:15:36;;;;;;;0.00;0.00;;;5.70;87.80;;;;;;6190978;23;20068;-92
2021/01/23 08:18:19;;;;;;;0.00;0.00;;;5.70;87.90;;;;;;6191814;23;20044;-93
2021/01/23 08:35:24;;;;;;;;;;;;;;;;;;;;;
2021/01/23 08:37:39;;;;;;;0.00;0.00;;;5.60;88.10;;;;;;6241647;23;20264;-93
2021/01/23 08:40:09;;;;;;;0.10;0.00;;;5.70;87.90;;;;;;6225947;23;19996;-94
2021/01/23 08:42:43;;;;;;;0.00;0.00;;;5.80;87.70;;;;;;6225939;23;20004;-94
2021/01/23 08:45:10;;;;;;;0.00;0.00;;;5.90;87.40;;;;;;6251340;22;20381;-94
2021/01/23 08:47:37;;;;;;;0.00;0.00;;;5.90;87.20;;;;;;6252825;23;20007;-94
2021/01/23 08:50:04;;;;;;;0.00;0.00;;;5.90;87.00;;;;;;6199195;23;20032;-94
2021/01/23 08:52:30;;;;;;;0.00;0.00;;;6.00;87.00;;;;;;6201948;23;19996;-95
2021/01/23 08:54:56;;;;;;;0.00;0.00;;;6.10;86.90;;;;;;6228164;23;19996;-93
2021/01/23 08:57:23;;;;;;;0.13;0.10;;;6.10;86.70;;;;;;6202032;23;20253;-92
2021/01/23 08:59:49;;;;;;;0.00;0.00;;;6.20;86.50;;;;;;6210089;23;20008;-93
2021/01/23 09:02:15;;;;;;;0.27;0.07;;;6.20;86.60;;;;;;6253167;22;20020;-95
2021/01/23 09:04:42;;;;;;;0.00;0.00;;;6.10;86.60;;;;;;6249734;23;20011;-93
2021/01/23 09:07:19;;;;;;;0.00;0.00;;;6.10;86.70;;;;;;6196678;23;20007;-93
2021/01/23 09:14:22;;;;;;;;;;;;;;;;;;;;;
2021/01/23 09:17:02;;;;;;;;;;;;;;;;;;;;;
2021/01/23 09:22:13;;;;;;;0.00;0.00;;;6.30;86.40;;;;;;6244076;22;20020;-93
2021/01/23 09:24:42;;;;;;;0.00;0.00;;;6.40;86.30;;;;;;6228622;23;20004;-90
2021/01/23 09:27:11;;;;;;;0.20;0.10;;;6.50;86.10;;;;;;6196413;23;20048;-92
2021/01/23 09:33:12;;;;;;;2.20;0.07;;;6.50;86.00;;;;;;6184036;23;20016;-93
2021/01/23 09:39:18;;;;;;;0.10;0.10;;;6.50;86.20;;;;;;6140105;23;20025;-91
2021/01/23 09:45:20;;;;;;;0.00;0.00;;;6.50;86.30;;;;;;6132745;23;20021;-92
2021/01/23 09:47:51;;;;;;;0.00;0.00;;;6.50;86.30;;;;;;6125123;23;20013;-91
2021/01/23 09:50:30;;;;;;;0.00;0.00;;;6.50;86.30;;;;;;6221314;23;20300;-93
2021/01/23 09:52:57;;;;;;;1.70;0.30;;;6.50;86.50;;;;;;6181195;23;20002;-91
2021/01/23 09:55:30;;;;;;;0.00;0.00;;;6.60;86.20;;;;;;6178278;23;20386;-93
2021/01/23 09:57:59;;;;;;;0.10;0.00;;;6.80;85.80;;;;;;6203342;23;20000;-91
2021/01/23 10:01:20;;;;;;;;;;;;;;;;;;;;;
2021/01/23 10:03:50;;;;;;;1.65;0.20;;;7.10;85.10;;;;;;6240222;23;20010;-93
2021/01/23 10:06:17;;;;;;;1.60;0.20;;;7.30;84.60;;;;;;6178575;23;20000;-92
2021/01/23 10:08:50;;;;;;;0.00;0.00;;;7.50;84.20;;;;;;6205157;23;19996;-92
2021/01/23 10:11:17;;;;;;;0.00;0.00;;;7.70;83.80;;;;;;6180457;23;20000;-90
2021/01/23 10:13:43;;;;;;;0.77;0.77;;;7.90;83.40;;;;;;6228467;23;20000;-87
2021/01/23 10:16:09;;;;;;;0.05;0.03;;;8.30;83.00;;;;;;6251009;22;20005;-92
2021/01/23 10:18:36;;;;;;;0.30;0.10;;;8.70;82.00;;;;;;6220333;23;19996;-91
2021/01/23 10:21:06;;;;;;;0.38;0.00;;;8.80;81.50;;;;;;6194899;23;20012;-89
2021/01/23 10:23:32;;;;;;;0.00;0.00;;;8.90;81.50;;;;;;6196293;23;19996;-90
2021/01/23 10:25:59;;;;;;;0.57;0.13;;;8.90;81.60;;;;;;6195493;23;19996;-91
2021/01/23 10:28:26;;;;;;;0.10;0.00;;;8.90;81.80;;;;;;6194759;23;20372;-91
2021/01/23 10:30:52;;;;;;;0.10;0.00;;;8.80;82.00;;;;;;6194786;23;20008;-91
2021/01/23 10:33:19;;;;;;;0.00;0.00;;;8.70;82.50;;;;;;6194766;23;20019;-90
2021/01/23 10:35:45;;;;;;;1.65;0.43;;;8.50;83.00;;;;;;6219821;23;20387;-91
2021/01/23 10:38:12;;;;;;;0.00;0.00;;;8.40;83.60;;;;;;6247639;23;20007;-91
2021/01/23 10:40:38;;;;;;;4.00;1.58;;;8.30;84.00;;;;;;6195630;23;20368;-89
2021/01/23 10:43:05;;;;;;;0.52;0.47;;;8.20;84.30;;;;;;6195383;23;19996;-90
2021/01/23 10:45:31;;;;;;;0.00;0.00;;;8.20;84.50;;;;;;6193606;23;20011;-90
2021/01/23 10:47:58;;;;;;;0.30;0.30;;;8.20;84.50;;;;;;6219022;23;20000;-91
2021/01/23 10:50:25;;;;;;;0.00;0.00;;;8.30;84.50;;;;;;6195400;23;20006;-91
2021/01/23 10:52:51;;;;;;;0.00;0.00;;;8.30;84.40;;;;;;6195742;23;20000;-92
2021/01/23 10:55:18;;;;;;;0.00;0.00;;;8.40;84.30;;;;;;6169950;23;20399;-92
2021/01/23 10:57:44;;;;;;;0.00;0.00;;;8.50;84.00;;;;;;6171281;23;20000;-94
2021/01/23 11:00:11;;;;;;;0.28;0.22;;;8.60;83.80;;;;;;6169861;22;20000;-91
2021/01/23 11:02:40;;;;;;;0.20;0.15;;;8.60;83.70;;;;;;6195147;23;20000;-92
2021/01/23 11:05:08;;;;;;;0.52;0.15;;;8.60;83.70;;;;;;6196600;23;20000;-90
2021/01/23 11:07:34;;;;;;;0.30;0.10;;;8.60;83.80;;;;;;6170160;23;20000;-92
2021/01/23 11:10:00;;;;;;;0.65;0.20;;;8.60;83.90;;;;;;6194558;23;20000;-92
2021/01/23 11:12:27;;;;;;;0.00;0.00;;;8.50;84.10;;;;;;6195195;23;20007;-90
2021/01/23 11:14:53;;;;;;;7.32;0.22;;;8.40;84.40;;;;;;6170637;23;19996;-88
2021/01/23 11:17:20;;;;;;;0.03;0.00;;;8.30;84.60;;;;;;6192210;23;20012;-92
2021/01/23 11:19:46;;;;;;;0.47;0.47;;;8.40;84.70;;;;;;6194666;23;20011;-91
2021/01/23 11:22:12;;;;;;;0.57;0.22;;;8.30;84.60;;;;;;6219578;23;20016;-90
2021/01/23 11:24:42;;;;;;;0.20;0.00;;;8.30;84.60;;;;;;6197563;23;20000;-89
2021/01/23 11:27:08;;;;;;;0.20;0.10;;;8.40;84.70;;;;;;6220473;23;20256;-91
2021/01/23 11:29:35;;;;;;;0.00;0.00;;;8.40;84.70;;;;;;6222203;23;20012;-92
2021/01/23 11:32:01;;;;;;;2.72;0.20;;;8.30;84.60;;;;;;6197621;23;20005;-92
2021/01/23 11:34:28;;;;;;;0.75;0.30;;;8.30;84.60;;;;;;6172735;23;20150;-93
2021/01/23 11:36:54;;;;;;;0.00;0.00;;;8.30;84.80;;;;;;6197784;23;20035;-91
2021/01/23 11:39:20;;;;;;;0.00;0.00;;;8.30;84.80;;;;;;6174666;23;20008;-92
2021/01/23 11:41:47;;;;;;;0.45;0.17;;;8.30;84.80;;;;;;6225130;23;20026;-89
2021/01/23 11:44:13;;;;;;;0.00;0.00;;;8.30;84.70;;;;;;6172790;23;20000;-92
2021/01/23 11:46:40;;;;;;;0.00;0.00;;;8.40;84.60;;;;;;6223286;23;20012;-91
2021/01/23 11:49:06;;;;;;;0.00;0.00;;;8.40;84.50;;;;;;6224256;23;20272;-90
2021/01/23 11:51:33;;;;;;;0.00;0.00;;;8.40;84.50;;;;;;6200459;23;20055;-89
2021/01/23 11:53:59;;;;;;;0.00;0.00;;;8.50;84.50;;;;;;6172243;23;19996;-94
2021/01/23 11:56:27;;;;;;;0.80;0.65;;;8.50;84.30;;;;;;6197093;23;20023;-93
2021/01/23 11:58:54;;;;;;;0.00;0.00;;;8.40;84.30;;;;;;6172531;23;20000;-93
2021/01/23 12:01:20;;;;;;;0.00;0.00;;;8.20;84.60;;;;;;6197927;23;20391;-94
2021/01/23 12:03:50;;;;;;;0.00;0.00;;;8.20;85.10;;;;;;6173407;23;20183;-92
2021/01/23 12:06:16;;;;;;;0.00;0.00;;;8.20;84.90;;;;;;6196275;23;20007;-94
2021/01/23 12:08:42;;;;;;;0.00;0.00;;;8.20;85.00;;;;;;6195542;23;20003;-94
2021/01/23 12:11:09;;;;;;;0.00;0.00;;;8.30;84.70;;;;;;6196804;23;20000;-92
2021/01/23 12:13:35;;;;;;;0.00;0.00;;;8.50;84.20;;;;;;6223725;23;20011;-94
2021/01/23 12:16:04;;;;;;;0.10;0.00;;;8.60;83.70;;;;;;6172163;23;20268;-93
2021/01/23 12:18:30;;;;;;;0.90;0.38;;;8.70;83.30;;;;;;6197272;23;20268;-94
2021/01/23 12:20:57;;;;;;;1.45;0.45;;;8.80;83.10;;;;;;6189845;23;20013;-95
2021/01/23 12:23:23;;;;;;;0.00;0.00;;;8.70;83.20;;;;;;6142780;23;20001;-93
2021/01/23 12:25:50;;;;;;;0.00;0.00;;;8.60;83.20;;;;;;6141985;23;20001;-92
2021/01/23 12:28:16;;;;;;;0.00;0.00;;;8.70;83.40;;;;;;6167490;23;20023;-92
2021/01/23 12:30:42;;;;;;;1.75;0.43;;;8.60;83.20;;;;;;6165894;23;20017;-92
2021/01/23 12:33:09;;;;;;;1.75;0.75;;;8.60;83.50;;;;;;6141892;23;20007;-93
2021/01/23 12:35:35;;;;;;;3.50;0.32;;;8.90;83.00;;;;;;6167011;23;19996;-94
2021/01/23 12:38:01;;;;;;;0.10;0.10;;;9.20;82.40;;;;;;6191615;23;19997;-93
2021/01/23 12:40:28;;;;;;;0.45;0.20;;;9.30;81.90;;;;;;6165771;23;20000;-93
2021/01/23 12:42:55;;;;;;;0.00;0.00;;;9.40;81.70;;;;;;6141650;23;20269;-93
2021/01/23 12:45:21;;;;;;;0.00;0.00;;;9.40;81.50;;;;;;6165513;23;20008;-93
2021/01/23 12:47:47;;;;;;;0.30;0.05;;;9.40;81.50;;;;;;6168021;23;19993;-93
2021/01/23 12:50:14;;;;;;;0.00;0.00;;;9.40;81.70;;;;;;6141248;23;20001;-93
2021/01/23 12:52:41;;;;;;;3.58;0.15;;;9.50;81.70;;;;;;6167419;23;20249;-93
2021/01/23 12:55:08;;;;;;;0.00;0.00;;;9.40;81.80;;;;;;6166968;23;20000;-92
2021/01/23 12:57:36;;;;;;;0.08;0.03;;;9.20;82.20;;;;;;6140733;23;20004;-93
2021/01/23 13:00:04;;;;;;;0.00;0.00;;;9.10;82.80;;;;;;6167865;23;20001;-88
2021/01/23 13:02:31;;;;;;;0.38;0.35;;;8.90;83.90;;;;;;6176368;23;20058;-91
2021/01/23 13:04:57;;;;;;;0.35;0.00;;;8.70;83.40;;;;;;6167245;23;20007;-94
2021/01/23 13:07:25;;;;;;;0.65;0.60;;;8.60;83.90;;;;;;6166945;23;20001;-94
2021/01/23 13:09:51;;;;;;;1.35;0.30;;;8.50;84.20;;;;;;6191527;23;20001;-89
2021/01/23 13:12:18;;;;;;;0.00;0.00;;;8.50;84.30;;;;;;6216543;23;20001;-92
2021/01/23 13:14:45;;;;;;;0.10;0.10;;;8.40;84.70;;;;;;6167980;23;19993;-93
2021/01/23 13:17:11;;;;;;;0.00;0.00;;;8.40;84.10;;;;;;6188501;23;20001;-92
2021/01/23 13:19:38;;;;;;;0.10;0.10;;;8.30;84.20;;;;;;6165957;23;20009;-91
2021/01/23 13:22:04;;;;;;;0.80;0.22;;;8.20;84.30;;;;;;6206816;23;20016;-93
2021/01/23 13:24:31;;;;;;;0.00;0.00;;;8.30;84.30;;;;;;6191059;23;20008;-91
2021/01/23 13:26:58;;;;;;;0.00;0.00;;;8.30;84.10;;;;;;6190778;23;20004;-93
2021/01/23 13:29:24;;;;;;;0.00;0.00;;;8.30;84.00;;;;;;6215581;23;20019;-93
2021/01/23 13:31:51;;;;;;;0.15;0.00;;;8.30;83.90;;;;;;6193758;23;20266;-92
2021/01/23 13:34:17;;;;;;;0.10;0.08;;;8.20;84.00;;;;;;6214742;23;20013;-92
2021/01/23 13:36:45;;;;;;;0.20;0.17;;;8.30;83.90;;;;;;6215446;23;20040;-93
2021/01/23 13:39:11;;;;;;;0.30;0.30;;;8.30;83.80;;;;;;6239543;22;20040;-93
2021/01/23 13:41:43;;;;;;;0.03;0.00;;;8.30;83.70;;;;;;6195460;23;20004;-88
2021/01/23 13:44:09;;;;;;;0.10;0.00;;;8.30;83.60;;;;;;6166980;23;20004;-93
2021/01/23 13:46:36;;;;;;;0.30;0.17;;;8.40;83.50;;;;;;6190517;23;20016;-93
2021/01/23 13:49:04;;;;;;;0.00;0.00;;;8.40;83.40;;;;;;6191642;23;20239;-92
2021/01/23 13:51:30;;;;;;;0.57;0.13;;;8.30;83.50;;;;;;6189281;23;20240;-92